Time;durP1;ratioP1;P1;durP2;ratioP2;P2;SDS_P1;SDS_P2;PMS_P1;PMS_P2;Temp;Humidity;BMP_temperature;BMP_pressure;BME280_temperature;BME280_humidity;BME280_pressure;Samples;Min_cycle;Max_cycle;Signal;HPM_P1;HPM_P2
2021/03/21 00:01:25;;;;;;;14.00;6.28;;;12.00;93.10;;;;;;5032881;28;20746;-85
2021/03/21 00:03:53;;;;;;;9.95;3.90;;;12.00;93.10;;;;;;5016034;28;20099;-82
2021/03/21 00:06:19;;;;;;;12.23;5.50;;;12.00;93.20;;;;;;5032967;28;20021;-83
2021/03/21 00:08:44;;;;;;;11.27;6.00;;;12.00;93.20;;;;;;5032515;28;20073;-84
2021/03/21 00:11:10;;;;;;;15.77;6.05;;;12.00;93.20;;;;;;4999520;28;20127;-81
2021/03/21 00:13:36;;;;;;;18.10;6.18;;;12.00;93.20;;;;;;5032394;28;20025;-85
2021/03/21 00:16:04;;;;;;;13.15;5.13;;;12.00;93.20;;;;;;5032447;28;20037;-85
2021/03/21 00:18:35;;;;;;;8.80;4.05;;;12.00;93.20;;;;;;5032458;28;20444;-84
2021/03/21 00:21:02;;;;;;;11.85;4.38;;;11.90;93.40;;;;;;5049996;28;20021;-83
2021/03/21 00:23:27;;;;;;;11.52;4.38;;;11.90;93.40;;;;;;5032152;28;20028;-86
2021/03/21 00:25:54;;;;;;;23.80;4.72;;;11.90;93.50;;;;;;5050199;28;20108;-82
2021/03/21 00:28:24;;;;;;;9.88;3.88;;;11.90;93.50;;;;;;5032196;28;20031;-84
2021/03/21 00:30:51;;;;;;;9.25;4.55;;;11.90;93.60;;;;;;5049957;28;20052;-83
2021/03/21 00:33:20;;;;;;;11.18;4.47;;;11.80;93.60;;;;;;5015687;28;20491;-84
2021/03/21 00:35:47;;;;;;;12.18;5.00;;;11.80;93.70;;;;;;5049959;28;20035;-83
2021/03/21 00:38:24;;;;;;;12.75;5.05;;;11.80;93.70;;;;;;5049743;28;20109;-86
2021/03/21 00:40:51;;;;;;;9.85;3.90;;;11.70;93.80;;;;;;5031746;28;20029;-86
2021/03/21 00:43:17;;;;;;;9.95;3.72;;;11.70;93.80;;;;;;5015344;28;20079;-83
2021/03/21 00:45:43;;;;;;;7.30;3.63;;;11.70;93.90;;;;;;5015302;28;20029;-85
2021/03/21 00:48:21;;;;;;;10.57;3.78;;;11.70;94.00;;;;;;5015180;28;20045;-83
2021/03/21 00:50:47;;;;;;;6.28;3.40;;;11.70;94.20;;;;;;5032156;28;20025;-84
2021/03/21 00:53:14;;;;;;;8.43;3.00;;;11.70;94.20;;;;;;5049763;28;20021;-86
2021/03/21 00:55:40;;;;;;;8.43;3.22;;;11.70;94.30;;;;;;5031884;28;20532;-84
2021/03/21 00:58:06;;;;;;;23.65;5.57;;;11.70;94.30;;;;;;5033572;28;20033;-83
2021/03/21 01:00:38;;;;;;;12.65;3.90;;;11.70;94.30;;;;;;5031963;28;20036;-83
2021/03/21 01:03:04;;;;;;;6.20;3.40;;;11.70;94.40;;;;;;5031526;28;20150;-82
2021/03/21 01:05:43;;;;;;;11.50;3.83;;;11.70;94.40;;;;;;5030446;28;20021;-83
2021/03/21 01:08:20;;;;;;;9.80;4.00;;;11.60;94.50;;;;;;5031422;28;20075;-84
2021/03/21 01:10:47;;;;;;;13.55;5.45;;;11.60;94.60;;;;;;5031427;28;20054;-84
2021/03/21 01:13:13;;;;;;;12.20;4.63;;;11.60;94.50;;;;;;5031759;28;20100;-85
2021/03/21 01:15:39;;;;;;;11.30;4.78;;;11.60;94.50;;;;;;5031288;28;20029;-83
2021/03/21 01:18:06;;;;;;;13.25;4.90;;;11.50;94.60;;;;;;5014812;28;20029;-84
2021/03/21 01:20:32;;;;;;;8.70;4.22;;;11.50;94.70;;;;;;5014839;28;20033;-83
2021/03/21 01:22:58;;;;;;;10.13;4.40;;;11.50;94.80;;;;;;5031294;28;20025;-85
2021/03/21 01:25:26;;;;;;;12.43;4.57;;;11.50;94.90;;;;;;5048973;28;20498;-86
2021/03/21 01:27:54;;;;;;;11.88;4.88;;;11.50;95.00;;;;;;5031105;28;20034;-83
2021/03/21 01:30:21;;;;;;;16.20;5.32;;;11.50;95.10;;;;;;5048820;28;20488;-84
2021/03/21 01:32:47;;;;;;;12.07;4.32;;;11.50;95.10;;;;;;4998268;28;20048;-86
2021/03/21 01:35:13;;;;;;;11.75;4.70;;;11.50;95.40;;;;;;5014657;28;20025;-84
2021/03/21 01:37:39;;;;;;;10.90;4.60;;;11.50;95.30;;;;;;5048770;28;20426;-84
2021/03/21 01:40:07;;;;;;;11.05;4.55;;;11.50;95.40;;;;;;5014348;28;20033;-83
2021/03/21 01:42:45;;;;;;;10.98;4.47;;;11.40;95.40;;;;;;5048418;28;20061;-83
2021/03/21 01:45:38;;;;;;;8.88;5.25;;;11.40;95.50;;;;;;5030805;28;20365;-83
2021/03/21 01:48:19;;;;;;;17.98;5.38;;;11.40;95.60;;;;;;5048601;28;20381;-85
2021/03/21 01:50:55;;;;;;;12.45;4.45;;;11.40;95.60;;;;;;5030852;28;20033;-85
2021/03/21 01:53:24;;;;;;;11.75;5.10;;;11.40;95.70;;;;;;5048625;28;20051;-84
2021/03/21 01:55:51;;;;;;;12.60;4.57;;;11.40;95.70;;;;;;5030602;28;20048;-82
2021/03/21 01:58:21;;;;;;;10.82;4.65;;;11.40;95.80;;;;;;5031037;28;20480;-83
2021/03/21 02:00:47;;;;;;;17.65;5.47;;;11.40;95.80;;;;;;5048529;28;20308;-85
2021/03/21 02:03:14;;;;;;;13.15;5.07;;;11.40;95.90;;;;;;5030502;28;20083;-83
2021/03/21 02:05:41;;;;;;;9.30;4.53;;;11.40;95.90;;;;;;5030352;28;20064;-86
2021/03/21 02:08:32;;;;;;;13.57;4.63;;;11.40;96.10;;;;;;5030389;28;20430;-82
2021/03/21 02:11:53;;;;;;;12.30;4.03;;;11.40;96.30;;;;;;5030335;28;20059;-85
2021/03/21 02:14:40;;;;;;;15.20;5.35;;;11.40;96.20;;;;;;5008515;28;20056;-83
2021/03/21 02:17:32;;;;;;;14.65;4.63;;;11.40;96.10;;;;;;5030162;28;20058;-84
2021/03/21 02:20:26;;;;;;;10.82;4.90;;;11.40;96.10;;;;;;5030285;28;20388;-83
2021/03/21 02:23:00;;;;;;;11.98;5.07;;;11.40;96.20;;;;;;5030341;28;20024;-83
2021/03/21 02:25:32;;;;;;;15.05;4.90;;;11.40;96.20;;;;;;5030077;28;20053;-84
2021/03/21 02:28:22;;;;;;;13.05;4.22;;;11.40;96.30;;;;;;5029936;28;20068;-86
2021/03/21 02:30:55;;;;;;;11.98;3.97;;;11.40;96.50;;;;;;5048199;28;20075;-83
2021/03/21 02:33:34;;;;;;;18.48;4.80;;;11.40;96.50;;;;;;5030447;28;20116;-85
2021/03/21 02:36:11;;;;;;;14.57;4.38;;;11.30;96.60;;;;;;5030075;28;20079;-84
2021/03/21 02:39:18;;;;;;;15.30;4.00;;;11.30;96.70;;;;;;5029990;28;20033;-86
2021/03/21 02:41:49;;;;;;;13.52;3.90;;;11.30;96.80;;;;;;5029655;28;20055;-85
2021/03/21 02:44:26;;;;;;;13.40;4.63;;;11.30;96.80;;;;;;5048206;28;20026;-85
2021/03/21 02:47:10;;;;;;;16.48;4.38;;;11.30;96.90;;;;;;5029720;28;20108;-84
2021/03/21 02:49:42;;;;;;;21.67;4.38;;;11.30;97.00;;;;;;5047921;28;20033;-85
2021/03/21 02:52:17;;;;;;;13.02;4.03;;;11.30;97.00;;;;;;5030101;28;20021;-84
2021/03/21 02:54:58;;;;;;;16.85;3.97;;;11.30;97.10;;;;;;5030029;28;20025;-84
2021/03/21 02:57:28;;;;;;;8.95;3.45;;;11.30;97.30;;;;;;5029787;28;20052;-85
2021/03/21 02:59:55;;;;;;;14.50;3.88;;;11.30;97.20;;;;;;5048021;28;20107;-84
2021/03/21 03:02:47;;;;;;;17.55;4.63;;;11.40;97.30;;;;;;5030054;28;20098;-84
2021/03/21 03:05:17;;;;;;;15.75;4.65;;;11.30;97.30;;;;;;5042626;28;20065;-84
2021/03/21 03:07:59;;;;;;;15.75;4.60;;;11.30;97.40;;;;;;5029860;28;20025;-83
2021/03/21 03:10:34;;;;;;;13.45;3.95;;;11.30;97.50;;;;;;5047566;28;20025;-82
2021/03/21 03:13:15;;;;;;;15.30;4.25;;;11.40;97.60;;;;;;5047485;28;20025;-86
2021/03/21 03:15:42;;;;;;;19.52;4.25;;;11.30;97.70;;;;;;5029641;28;20052;-84
2021/03/21 03:18:36;;;;;;;14.43;4.03;;;11.40;97.70;;;;;;5013000;28;20032;-84
2021/03/21 03:21:41;;;;;;;12.35;4.38;;;11.30;97.80;;;;;;5030160;28;20033;-83
2021/03/21 03:24:21;;;;;;;13.48;4.35;;;11.30;97.80;;;;;;5042348;28;20535;-84
2021/03/21 03:27:15;;;;;;;11.07;3.88;;;11.20;97.80;;;;;;5029890;28;20029;-82
2021/03/21 03:29:47;;;;;;;15.30;4.43;;;11.20;97.90;;;;;;5032314;28;20127;-84
2021/03/21 03:32:14;;;;;;;13.13;3.92;;;11.20;97.90;;;;;;5051084;28;20044;-85
2021/03/21 03:34:46;;;;;;;8.27;3.80;;;11.20;98.00;;;;;;5050915;28;20029;-85
2021/03/21 03:37:12;;;;;;;16.40;4.68;;;11.10;98.20;;;;;;5033487;28;20420;-86
2021/03/21 03:39:39;;;;;;;11.38;3.85;;;11.20;98.40;;;;;;5033267;28;20407;-83
2021/03/21 03:42:44;;;;;;;12.68;4.10;;;11.20;98.50;;;;;;5050953;28;20021;-84
2021/03/21 03:45:34;;;;;;;14.35;4.32;;;11.20;98.80;;;;;;5030274;28;20032;-83
2021/03/21 03:49:14;;;;;;;16.50;5.05;;;11.20;98.70;;;;;;5032980;28;20041;-82
2021/03/21 03:51:43;;;;;;;;;;;11.20;98.70;;;;;;4893778;29;20029;-82
2021/03/21 03:54:28;;;;;;;14.25;4.20;;;11.20;98.50;;;;;;4939804;29;19906;-86
2021/03/21 03:57:15;;;;;;;14.57;4.43;;;11.20;98.40;;;;;;5035794;28;20476;-84
2021/03/21 03:59:59;;;;;;;14.60;4.85;;;11.10;98.60;;;;;;5050587;28;20036;-84
2021/03/21 04:02:35;;;;;;;15.00;4.50;;;11.10;98.60;;;;;;5050568;28;20039;-84
2021/03/21 04:05:08;;;;;;;11.63;4.50;;;11.00;98.70;;;;;;5050440;28;20028;-81
2021/03/21 04:07:46;;;;;;;15.85;5.15;;;11.00;98.90;;;;;;5032449;28;20028;-84
2021/03/21 04:10:20;;;;;;;16.60;5.15;;;11.00;99.10;;;;;;5032646;28;20036;-83
2021/03/21 04:13:01;;;;;;;14.88;5.45;;;11.00;99.20;;;;;;5032604;28;20021;-83
2021/03/21 04:15:30;;;;;;;15.40;5.28;;;11.00;99.30;;;;;;5032327;28;20035;-83
2021/03/21 04:18:03;;;;;;;16.58;5.50;;;11.00;99.40;;;;;;5032350;28;20028;-84
2021/03/21 04:20:41;;;;;;;15.65;5.20;;;11.00;99.60;;;;;;5032574;28;20033;-83
2021/03/21 04:23:20;;;;;;;13.57;5.07;;;11.00;99.50;;;;;;5050118;28;20025;-84
2021/03/21 04:25:59;;;;;;;15.60;5.40;;;11.00;99.60;;;;;;5050172;28;20021;-86
2021/03/21 04:28:34;;;;;;;24.50;6.20;;;11.00;99.70;;;;;;5050086;28;20103;-82
2021/03/21 04:31:03;;;;;;;19.17;6.75;;;11.00;99.50;;;;;;5032128;28;20024;-83
2021/03/21 04:33:38;;;;;;;12.13;4.53;;;11.00;99.50;;;;;;5032245;28;20040;-83
2021/03/21 04:36:09;;;;;;;16.42;6.45;;;11.00;99.60;;;;;;5031894;28;20039;-85
2021/03/21 04:38:49;;;;;;;20.20;6.53;;;10.90;99.70;;;;;;5032138;28;20029;-86
2021/03/21 04:41:20;;;;;;;16.65;6.15;;;10.90;99.90;;;;;;5032039;28;20082;-84
2021/03/21 04:44:02;;;;;;;19.05;5.47;;;10.90;99.90;;;;;;5031713;28;20029;-85
2021/03/21 04:46:36;;;;;;;19.42;6.78;;;10.90;99.90;;;;;;5031857;28;20074;-82
2021/03/21 04:49:02;;;;;;;17.25;7.18;;;10.90;99.90;;;;;;5049436;28;20560;-85
2021/03/21 04:51:33;;;;;;;17.02;5.88;;;10.90;99.90;;;;;;5015621;28;20029;-81
2021/03/21 04:54:12;;;;;;;13.57;5.30;;;10.90;99.90;;;;;;5049615;28;20201;-84
2021/03/21 04:56:44;;;;;;;11.93;5.03;;;11.00;99.90;;;;;;5031707;28;20025;-82
2021/03/21 04:59:22;;;;;;;12.32;5.90;;;11.00;99.90;;;;;;5049481;28;20299;-83
2021/03/21 05:02:10;;;;;;;15.98;5.85;;;11.00;99.90;;;;;;5031564;28;20476;-82
2021/03/21 05:04:44;;;;;;;16.50;5.80;;;10.90;99.90;;;;;;5031364;28;20021;-83
2021/03/21 05:07:28;;;;;;;15.85;6.35;;;10.90;99.90;;;;;;5049442;28;20022;-85
2021/03/21 05:10:05;;;;;;;11.50;5.15;;;10.90;99.90;;;;;;5031220;28;20021;-83
2021/03/21 05:12:46;;;;;;;16.55;5.28;;;10.90;99.90;;;;;;5031688;28;20035;-87
2021/03/21 05:15:19;;;;;;;9.82;5.30;;;10.90;99.90;;;;;;5049029;28;20483;-84
2021/03/21 05:18:00;;;;;;;7.78;4.57;;;10.80;99.90;;;;;;5031356;28;20060;-83
2021/03/21 05:20:36;;;;;;;16.40;5.80;;;10.80;99.90;;;;;;5031103;28;20035;-82
2021/03/21 05:23:17;;;;;;;17.45;6.63;;;10.90;99.90;;;;;;5031221;28;20025;-84
2021/03/21 05:26:00;;;;;;;12.75;5.70;;;10.90;99.90;;;;;;5031165;28;20029;-82
2021/03/21 05:28:54;;;;;;;15.93;5.22;;;11.00;99.90;;;;;;5049004;28;20033;-85
2021/03/21 05:31:21;;;;;;;13.48;4.95;;;11.00;99.90;;;;;;5031047;28;20040;-83
2021/03/21 05:33:47;;;;;;;18.52;6.15;;;11.00;99.90;;;;;;5014681;28;20033;-83
2021/03/21 05:36:34;;;;;;;15.40;5.70;;;11.00;99.90;;;;;;5031117;28;20049;-85
2021/03/21 05:39:07;;;;;;;13.57;5.25;;;11.00;99.90;;;;;;5031163;28;20117;-83
2021/03/21 05:41:41;;;;;;;16.75;5.50;;;11.00;99.90;;;;;;5030657;28;20047;-83
2021/03/21 05:44:38;;;;;;;20.10;7.10;;;11.00;99.90;;;;;;5030813;28;20044;-83
2021/03/21 05:47:51;;;;;;;15.95;6.70;;;10.90;99.90;;;;;;5048412;28;20032;-84
2021/03/21 05:50:44;;;;;;;15.35;5.80;;;10.80;99.90;;;;;;4948303;29;20122;-83
2021/03/21 05:53:31;;;;;;;16.13;6.07;;;10.80;99.90;;;;;;5048192;28;20104;-85
2021/03/21 05:56:02;;;;;;;19.00;6.32;;;10.80;99.90;;;;;;5030596;28;20138;-82
2021/03/21 05:59:06;;;;;;;16.80;5.35;;;10.80;99.90;;;;;;5048357;28;20126;-84
2021/03/21 06:02:07;;;;;;;15.68;5.80;;;10.70;99.90;;;;;;5048323;28;20040;-84
2021/03/21 06:05:26;;;;;;;16.48;5.82;;;10.60;99.90;;;;;;5026155;28;20090;-84
2021/03/21 06:08:18;;;;;;;20.40;5.43;;;10.50;99.90;;;;;;5030304;28;20029;-84
2021/03/21 06:11:05;;;;;;;24.98;6.10;;;10.40;99.90;;;;;;5048319;28;20252;-82
2021/03/21 06:14:00;;;;;;;23.95;5.75;;;10.40;99.90;;;;;;5048175;28;20043;-82
2021/03/21 06:16:47;;;;;;;18.42;5.95;;;10.30;99.90;;;;;;5030507;28;20090;-83
2021/03/21 06:19:34;;;;;;;13.85;5.75;;;10.30;99.90;;;;;;5048216;28;20067;-85
2021/03/21 06:22:53;;;;;;;21.92;7.25;;;10.30;99.90;;;;;;5030456;28;20028;-84
2021/03/21 06:25:43;;;;;;;17.50;5.43;;;10.30;99.90;;;;;;5030303;28;20031;-84
2021/03/21 06:28:39;;;;;;;;;;;10.30;99.90;;;;;;5030797;28;20025;-83
2021/03/21 06:31:23;;;;;;;23.02;6.20;;;10.20;99.90;;;;;;5030442;28;19911;-82
2021/03/21 06:34:34;;;;;;;16.13;6.25;;;10.20;99.90;;;;;;5047982;28;20056;-84
2021/03/21 06:37:37;;;;;;;26.02;6.72;;;10.10;99.90;;;;;;5019499;28;20062;-82
2021/03/21 06:40:23;;;;;;;21.02;6.95;;;10.20;99.90;;;;;;5047972;28;20563;-82
2021/03/21 06:43:00;;;;;;;14.98;5.55;;;10.20;99.90;;;;;;5029955;28;20028;-84
2021/03/21 06:45:44;;;;;;;18.13;6.15;;;10.10;99.90;;;;;;5047861;28;20432;-86
2021/03/21 06:48:22;;;;;;;23.88;7.38;;;10.00;99.90;;;;;;5029948;28;20485;-84
2021/03/21 06:50:51;;;;;;;17.75;5.63;;;10.00;99.90;;;;;;5047713;28;20026;-83
2021/03/21 06:53:32;;;;;;;20.60;6.90;;;9.90;99.90;;;;;;5029936;28;20026;-82
2021/03/21 06:56:07;;;;;;;21.30;6.60;;;9.90;99.90;;;;;;5047789;28;20029;-82
2021/03/21 06:58:42;;;;;;;16.67;6.28;;;9.90;99.90;;;;;;5029858;28;20128;-83
2021/03/21 07:01:29;;;;;;;18.88;6.45;;;9.90;99.90;;;;;;5047553;28;20047;-81
2021/03/21 07:03:54;;;;;;;11.98;4.65;;;10.00;99.90;;;;;;5049041;28;20110;-82
2021/03/21 07:06:59;;;;;;;15.13;4.80;;;10.10;99.90;;;;;;5051609;28;20021;-85
2021/03/21 07:09:45;;;;;;;19.02;6.63;;;10.20;99.90;;;;;;5033631;28;20074;-82
2021/03/21 07:12:11;;;;;;;11.40;4.45;;;10.30;99.90;;;;;;5033401;28;20029;-84
2021/03/21 07:14:45;;;;;;;9.75;4.35;;;10.30;99.90;;;;;;5033485;28;20024;-84
2021/03/21 07:17:37;;;;;;;15.13;5.28;;;10.40;99.90;;;;;;5051497;28;20017;-83
2021/03/21 07:20:21;;;;;;;12.43;5.00;;;10.40;99.90;;;;;;5051167;28;20070;-83
2021/03/21 07:23:19;;;;;;;11.02;3.92;;;10.40;99.90;;;;;;5033360;28;20025;-84
2021/03/21 07:26:18;;;;;;;11.18;5.50;;;10.40;99.90;;;;;;5051054;28;20035;-81
2021/03/21 07:28:46;;;;;;;15.27;4.22;;;10.50;99.90;;;;;;4999989;28;20035;-82
2021/03/21 07:31:32;;;;;;;11.45;4.00;;;10.60;99.90;;;;;;5033176;28;20475;-83
2021/03/21 07:34:08;;;;;;;17.17;5.10;;;10.60;99.90;;;;;;4982174;28;20084;-82
2021/03/21 07:36:49;;;;;;;15.00;4.28;;;10.80;99.90;;;;;;5050964;28;20024;-84
2021/03/21 07:39:34;;;;;;;9.82;4.15;;;10.90;99.90;;;;;;5033034;28;20049;-83
2021/03/21 07:42:26;;;;;;;10.65;3.33;;;11.10;99.90;;;;;;5050882;28;20492;-83
2021/03/21 07:45:03;;;;;;;9.43;3.60;;;11.20;99.90;;;;;;5019984;28;20033;-84
2021/03/21 07:48:04;;;;;;;8.32;3.53;;;11.30;99.90;;;;;;5029226;28;20041;-83
2021/03/21 07:50:35;;;;;;;12.98;3.55;;;11.30;99.90;;;;;;5043662;28;20069;-84
2021/03/21 07:53:13;;;;;;;12.77;4.13;;;11.50;99.90;;;;;;5032734;28;20183;-82
2021/03/21 07:56:00;;;;;;;10.43;3.45;;;11.60;99.90;;;;;;5050624;28;20040;-83
2021/03/21 07:58:40;;;;;;;8.40;2.90;;;11.70;99.80;;;;;;5032821;28;20025;-84
2021/03/21 08:01:06;;;;;;;10.50;3.08;;;11.90;99.70;;;;;;5032679;28;20031;-87
2021/03/21 08:03:32;;;;;;;9.60;3.90;;;12.00;99.40;;;;;;5016273;28;20029;-82
2021/03/21 08:06:00;;;;;;;10.27;3.33;;;12.00;99.20;;;;;;5032595;28;20058;-86
2021/03/21 08:08:32;;;;;;;13.70;3.33;;;12.10;98.90;;;;;;5032475;28;20024;-83
2021/03/21 08:11:01;;;;;;;9.95;3.50;;;12.20;98.90;;;;;;5050328;28;20476;-85
2021/03/21 08:13:43;;;;;;;9.52;2.90;;;12.30;99.00;;;;;;5050461;28;20091;-84
2021/03/21 08:16:22;;;;;;;15.05;3.38;;;12.60;98.80;;;;;;5031732;28;20100;-84
2021/03/21 08:18:49;;;;;;;10.57;2.75;;;12.80;98.50;;;;;;5032245;28;20110;-84
2021/03/21 08:21:30;;;;;;;10.38;2.90;;;13.00;98.20;;;;;;4999447;28;20048;-85
2021/03/21 08:24:17;;;;;;;9.80;2.70;;;13.20;97.70;;;;;;5031941;28;20025;-85
2021/03/21 08:26:45;;;;;;;7.88;2.13;;;13.40;97.50;;;;;;5032266;28;20391;-86
2021/03/21 08:29:26;;;;;;;9.27;2.42;;;13.80;97.10;;;;;;5032227;28;20467;-84
2021/03/21 08:32:01;;;;;;;13.68;2.25;;;13.90;96.00;;;;;;5050330;28;20426;-83
2021/03/21 08:34:43;;;;;;;8.68;2.35;;;14.00;95.60;;;;;;5032366;28;20024;-84
2021/03/21 08:37:21;;;;;;;10.85;2.15;;;13.90;95.40;;;;;;5031951;28;20071;-83
2021/03/21 08:39:51;;;;;;;9.82;2.03;;;14.00;95.20;;;;;;5049705;28;20025;-85
2021/03/21 08:42:26;;;;;;;8.18;1.75;;;14.20;95.20;;;;;;5031421;28;20021;-84
2021/03/21 08:45:01;;;;;;;10.13;1.85;;;14.50;94.40;;;;;;5049330;28;20020;-84
2021/03/21 08:47:29;;;;;;;15.73;2.67;;;14.70;93.80;;;;;;5031209;28;20095;-83
2021/03/21 08:49:57;;;;;;;9.95;2.75;;;14.80;93.40;;;;;;5031375;28;20025;-85
2021/03/21 08:52:30;;;;;;;6.85;2.63;;;14.90;93.00;;;;;;5031260;28;20029;-86
2021/03/21 08:55:01;;;;;;;9.20;2.33;;;15.10;92.30;;;;;;5031657;28;20059;-85
2021/03/21 08:57:33;;;;;;;10.30;1.70;;;15.30;91.90;;;;;;5031365;28;20047;-83
2021/03/21 09:00:13;;;;;;;6.57;1.42;;;15.30;91.10;;;;;;5031969;28;20029;-83
2021/03/21 09:02:39;;;;;;;;;;;15.40;90.60;;;;;;5033865;28;20127;-82
2021/03/21 09:05:08;;;;;;;5.82;1.70;;;15.60;91.80;;;;;;5032498;28;19936;-86
2021/03/21 09:07:36;;;;;;;7.15;1.75;;;16.00;91.30;;;;;;5049119;28;20083;-85
2021/03/21 09:10:25;;;;;;;11.00;1.83;;;16.20;90.60;;;;;;5031290;28;20025;-85
2021/03/21 09:13:02;;;;;;;7.10;1.48;;;16.40;88.60;;;;;;5031055;28;20025;-86
2021/03/21 09:15:40;;;;;;;9.00;2.17;;;16.30;88.30;;;;;;5049051;28;20029;-84
2021/03/21 09:18:20;;;;;;;10.43;1.40;;;16.40;86.40;;;;;;5031266;28;20024;-83
2021/03/21 09:21:17;;;;;;;7.53;2.03;;;16.20;85.40;;;;;;5031099;28;20071;-83
2021/03/21 09:23:56;;;;;;;7.50;1.70;;;16.00;84.90;;;;;;5049158;28;20025;-86
2021/03/21 09:26:31;;;;;;;8.15;1.67;;;15.80;84.30;;;;;;5048264;28;20028;-86
2021/03/21 09:29:15;;;;;;;6.85;1.60;;;15.70;84.10;;;;;;5031049;28;20060;-83
2021/03/21 09:31:42;;;;;;;8.82;1.95;;;15.40;83.80;;;;;;5048556;28;20021;-85
2021/03/21 09:34:18;;;;;;;7.55;1.65;;;15.20;84.10;;;;;;5030730;28;20248;-86
2021/03/21 09:36:57;;;;;;;8.63;1.90;;;14.90;84.40;;;;;;5048686;28;20484;-83
2021/03/21 09:39:33;;;;;;;9.95;2.20;;;15.20;86.30;;;;;;5030889;28;20085;-86
2021/03/21 09:42:00;;;;;;;8.32;1.98;;;15.60;86.90;;;;;;5030561;28;20032;-82
2021/03/21 09:44:29;;;;;;;5.57;1.55;;;16.20;86.00;;;;;;5014042;28;20037;-84
2021/03/21 09:47:41;;;;;;;6.07;1.50;;;16.50;83.80;;;;;;5030303;28;20029;-83
2021/03/21 09:50:16;;;;;;;8.75;1.80;;;16.40;82.10;;;;;;4968496;28;20088;-83
2021/03/21 09:52:50;;;;;;;8.63;1.73;;;16.20;81.60;;;;;;5031203;28;20024;-86
2021/03/21 09:55:47;;;;;;;8.65;1.40;;;16.20;81.80;;;;;;5031296;28;20127;-83
2021/03/21 09:58:43;;;;;;;7.95;1.92;;;16.10;80.90;;;;;;5030049;28;20056;-83
2021/03/21 10:01:53;;;;;;;13.90;1.88;;;15.90;80.30;;;;;;5008612;28;20064;-85
2021/03/21 10:04:37;;;;;;;8.10;1.45;;;15.60;80.40;;;;;;5047960;28;20095;-85
2021/03/21 10:07:08;;;;;;;5.95;1.92;;;15.40;80.40;;;;;;5029993;28;20025;-87
2021/03/21 10:09:35;;;;;;;9.15;2.03;;;15.20;80.70;;;;;;5030356;28;20017;-86
2021/03/21 10:12:08;;;;;;;5.82;1.52;;;15.20;81.20;;;;;;5013973;28;20061;-84
2021/03/21 10:14:34;;;;;;;10.98;2.13;;;15.60;83.40;;;;;;5029826;28;20391;-86
2021/03/21 10:17:12;;;;;;;7.43;2.30;;;16.60;82.70;;;;;;5047826;28;20024;-85
2021/03/21 10:19:38;;;;;;;7.40;1.75;;;16.80;79.80;;;;;;5015138;28;20068;-86
2021/03/21 10:22:25;;;;;;;7.63;1.50;;;16.70;78.10;;;;;;5048682;28;20071;-85
2021/03/21 10:24:53;;;;;;;5.13;1.80;;;16.30;76.80;;;;;;5029388;28;20484;-83
2021/03/21 10:27:34;;;;;;;8.88;1.42;;;16.10;77.30;;;;;;5029568;28;20484;-83
2021/03/21 10:30:18;;;;;;;9.43;2.05;;;15.90;77.30;;;;;;5029637;28;20538;-83
2021/03/21 10:32:50;;;;;;;9.95;2.42;;;15.80;77.20;;;;;;5029922;28;20324;-85
2021/03/21 10:35:25;;;;;;;6.80;2.03;;;15.80;77.10;;;;;;5029331;28;20033;-85
2021/03/21 10:37:55;;;;;;;8.60;1.60;;;15.70;77.80;;;;;;5030832;28;20044;-83
2021/03/21 10:40:24;;;;;;;;;;;15.80;77.20;;;;;;5033872;28;20110;-82
2021/03/21 10:42:59;;;;;;;5.15;2.00;;;16.60;82.00;;;;;;5052775;28;20007;-83
2021/03/21 10:45:34;;;;;;;4.80;1.52;;;18.50;81.80;;;;;;5033587;28;20032;-85
2021/03/21 10:48:26;;;;;;;4.50;1.15;;;20.90;77.10;;;;;;5051365;28;20041;-82
2021/03/21 10:50:58;;;;;;;8.73;1.55;;;21.70;69.80;;;;;;4983082;28;20044;-84
2021/03/21 10:53:39;;;;;;;8.50;1.88;;;21.30;66.80;;;;;;5030059;28;20569;-86
2021/03/21 10:56:19;;;;;;;7.20;1.52;;;20.70;65.10;;;;;;5030845;28;20030;-84
2021/03/21 10:58:45;;;;;;;8.93;2.00;;;19.90;64.90;;;;;;5033045;28;20031;-84
2021/03/21 11:01:17;;;;;;;7.00;1.55;;;19.70;66.60;;;;;;5050994;28;20162;-85
2021/03/21 11:03:59;;;;;;;9.88;1.45;;;20.20;67.00;;;;;;5032476;28;20434;-86
2021/03/21 11:06:47;;;;;;;5.10;1.52;;;20.60;65.60;;;;;;5035484;28;20388;-86
2021/03/21 11:09:15;;;;;;;11.02;2.35;;;20.30;63.50;;;;;;5033334;28;20021;-84
2021/03/21 11:11:44;;;;;;;10.10;2.15;;;19.90;62.90;;;;;;5033121;28;20111;-83
2021/03/21 11:14:26;;;;;;;9.60;1.95;;;19.30;62.60;;;;;;5032551;28;20120;-82
2021/03/21 11:17:03;;;;;;;7.18;1.50;;;18.60;62.40;;;;;;5050599;28;20025;-83
2021/03/21 11:19:33;;;;;;;6.10;1.50;;;18.00;63.70;;;;;;5033429;28;20029;-82
2021/03/21 11:22:09;;;;;;;5.40;1.40;;;17.60;63.80;;;;;;5050178;28;20025;-83
2021/03/21 11:24:36;;;;;;;6.93;1.50;;;17.50;64.30;;;;;;5050404;28;20031;-85
2021/03/21 11:27:05;;;;;;;7.40;1.50;;;17.70;64.80;;;;;;5016775;28;20091;-85
2021/03/21 11:29:39;;;;;;;4.13;1.25;;;17.80;64.60;;;;;;5050266;28;20025;-83
2021/03/21 11:32:16;;;;;;;9.38;1.40;;;17.90;63.50;;;;;;5031708;28;20042;-85
2021/03/21 11:34:44;;;;;;;8.27;1.30;;;17.70;63.50;;;;;;5032635;28;20024;-85
2021/03/21 11:37:19;;;;;;;8.07;1.98;;;17.60;63.50;;;;;;5032697;28;20017;-82
2021/03/21 11:39:52;;;;;;;7.57;2.08;;;17.50;63.60;;;;;;5032358;28;20104;-85
2021/03/21 11:42:30;;;;;;;7.68;2.42;;;17.70;63.80;;;;;;5032502;28;20021;-83
2021/03/21 11:45:14;;;;;;;8.02;2.20;;;18.30;64.70;;;;;;5050367;28;20099;-79
2021/03/21 11:47:45;;;;;;;6.13;2.03;;;19.90;63.60;;;;;;5033546;28;20445;-82
2021/03/21 11:50:33;;;;;;;4.95;1.35;;;20.40;61.40;;;;;;5016891;28;20514;-82
2021/03/21 11:53:01;;;;;;;12.35;6.78;;;21.20;61.30;;;;;;5033355;28;20024;-82
2021/03/21 11:55:30;;;;;;;11.68;2.13;;;22.60;61.40;;;;;;5016083;28;20037;-84
2021/03/21 11:58:30;;;;;;;10.20;3.45;;;23.90;58.70;;;;;;5031224;28;20025;-86
2021/03/21 12:01:11;;;;;;;11.05;2.13;;;25.40;56.40;;;;;;5049991;28;20502;-87
2021/03/21 12:03:51;;;;;;;10.88;2.03;;;25.60;53.20;;;;;;5030705;28;20060;-87
2021/03/21 12:06:30;;;;;;;5.95;1.50;;;25.00;51.60;;;;;;5049446;28;20049;-85
2021/03/21 12:08:59;;;;;;;6.80;1.58;;;24.20;51.50;;;;;;5031209;28;20476;-83
2021/03/21 12:11:24;;;;;;;23.85;14.65;;;23.50;52.40;;;;;;5015866;28;20527;-85
2021/03/21 12:13:52;;;;;;;7.28;2.75;;;23.00;52.00;;;;;;5050535;28;20024;-82
2021/03/21 12:16:48;;;;;;;9.20;2.17;;;22.70;52.30;;;;;;5050121;28;20485;-87
2021/03/21 12:19:23;;;;;;;12.18;2.72;;;22.30;51.60;;;;;;5001251;28;20147;-86
2021/03/21 12:21:51;;;;;;;6.68;2.17;;;21.60;51.90;;;;;;5031334;28;20107;-86
2021/03/21 12:24:22;;;;;;;9.35;2.78;;;21.20;52.90;;;;;;5014588;28;20060;-83
2021/03/21 12:26:55;;;;;;;13.93;2.38;;;21.00;53.10;;;;;;5031206;28;20032;-84
2021/03/21 12:29:23;;;;;;;6.40;2.30;;;20.90;53.40;;;;;;5032081;28;20020;-86
2021/03/21 12:31:55;;;;;;;13.37;4.60;;;20.70;53.30;;;;;;5030963;28;20032;-83
2021/03/21 12:34:22;;;;;;;16.33;5.03;;;20.60;53.80;;;;;;5030744;28;20039;-85
2021/03/21 12:37:10;;;;;;;27.70;12.48;;;21.10;54.60;;;;;;5030991;28;20048;-84
2021/03/21 12:39:39;;;;;;;10.05;3.30;;;22.00;53.50;;;;;;5048901;28;20499;-86
2021/03/21 12:42:24;;;;;;;;;;;21.90;52.70;;;;;;5031136;28;20036;-84
2021/03/21 12:45:17;;;;;;;15.43;7.30;;;21.40;53.10;;;;;;5030797;28;20003;-86
2021/03/21 12:48:04;;;;;;;11.45;3.13;;;20.60;53.20;;;;;;5030497;28;20059;-84
2021/03/21 12:50:36;;;;;;;9.85;2.80;;;20.00;53.70;;;;;;5030703;28;20026;-83
2021/03/21 12:53:10;;;;;;;27.88;8.07;;;19.50;54.50;;;;;;5031063;28;20055;-85
2021/03/21 12:55:36;;;;;;;22.15;10.07;;;19.40;54.80;;;;;;5048852;28;20373;-84
2021/03/21 12:58:03;;;;;;;46.17;22.85;;;19.50;55.50;;;;;;5048825;28;20028;-86
2021/03/21 13:00:34;;;;;;;12.95;4.25;;;19.60;55.50;;;;;;4998484;28;20567;-85
2021/03/21 13:03:02;;;;;;;27.52;9.82;;;20.00;55.10;;;;;;5030980;28;20047;-85
2021/03/21 13:05:39;;;;;;;20.60;6.60;;;19.90;54.40;;;;;;5032037;28;20395;-84
2021/03/21 13:08:07;;;;;;;18.83;7.03;;;19.80;53.90;;;;;;5031915;28;20104;-86
2021/03/21 13:10:34;;;;;;;12.18;3.33;;;19.70;54.40;;;;;;5047872;28;20132;-85
2021/03/21 13:13:01;;;;;;;10.63;3.50;;;19.80;54.90;;;;;;4997116;28;20032;-84
2021/03/21 13:15:27;;;;;;;15.98;5.55;;;20.50;55.10;;;;;;5030013;28;20452;-85
2021/03/21 13:17:53;;;;;;;18.67;5.93;;;21.20;54.30;;;;;;5029193;28;20121;-85
2021/03/21 13:20:20;;;;;;;24.33;6.20;;;21.70;53.40;;;;;;5046724;28;20061;-85
2021/03/21 13:22:46;;;;;;;16.20;4.28;;;22.00;53.10;;;;;;5047705;28;20488;-85
2021/03/21 13:25:23;;;;;;;17.17;7.60;;;22.40;52.60;;;;;;5029564;28;20322;-85
2021/03/21 13:27:55;;;;;;;10.10;2.85;;;22.80;51.90;;;;;;5030314;28;20092;-87
2021/03/21 13:30:23;;;;;;;15.43;6.65;;;23.30;51.30;;;;;;5029435;28;20029;-81
2021/03/21 13:32:49;;;;;;;19.13;6.07;;;23.70;51.00;;;;;;5031334;28;20052;-85